Horta Airport Horta PT
ICAO: LPHR
IATA: HOR
Category: Medium
Scheduled Services: Yes

Elevation: 118 ft
TransAlt. 5000 ft.

Airport Communications:
APP:119.7
TWR:118

LPHR Zoom In..

Runways:

(A) RW 10 length 5233 ft width 148 ft
---- / hdg 102

(B) RW 28 length 5233 ft width 148 ft
---- / hdg 282

Location; LPHR
Day. 20 / Time. 11.00 Zulu
* QNH: 1020
* Temperature: 22° c. 71.6°f.
* Wind from: 320° Speed 05 kn.
Dewpoint: 15° c.
Visibility: 10 km or more.
Clouds: Few 700 ft.
Clouds: Scattered 1200 ft.

LPHR 201100Z 32005KT 290V360 9999 FEW007 SCT012 22/15 Q1020


Wind From 320°
Speed 05 kn.

 
 
jpsmedia.com for Web Design SOUNDCLOUD worldairports.se 2018   terms of use